Time;durP1;ratioP1;P1;durP2;ratioP2;P2;SDS_P1;SDS_P2;PMS_P1;PMS_P2;Temp;Humidity;BMP_temperature;BMP_pressure;BME280_temperature;BME280_humidity;BME280_pressure;Samples;Min_cycle;Max_cycle;Signal;HPM_P1;HPM_P2
2023/10/20 00:00:32;;;;;;;10.13;3.80;;;17.60;99.90;;;;;;7287120;19;20677;-83
2023/10/20 00:02:58;;;;;;;11.97;4.20;;;17.50;99.90;;;;;;7285012;19;20201;-82
2023/10/20 00:05:26;;;;;;;8.40;3.63;;;17.50;99.90;;;;;;7286833;19;20260;-83
2023/10/20 00:07:53;;;;;;;9.90;3.87;;;17.50;99.90;;;;;;7286609;19;20193;-83
2023/10/20 00:10:19;;;;;;;7.70;3.97;;;17.50;99.90;;;;;;7285248;19;20220;-83
2023/10/20 00:12:45;;;;;;;8.97;3.40;;;17.50;99.90;;;;;;7285852;19;20195;-83
2023/10/20 00:15:13;;;;;;;10.03;3.70;;;17.50;99.90;;;;;;7280760;19;20569;-83
2023/10/20 00:17:40;;;;;;;8.60;3.67;;;17.50;99.90;;;;;;7282799;19;20669;-82
2023/10/20 00:20:09;;;;;;;9.53;3.60;;;17.50;99.90;;;;;;7307145;19;20196;-83
2023/10/20 00:22:35;;;;;;;7.87;3.90;;;17.50;99.90;;;;;;7284785;19;20186;-82
2023/10/20 00:25:01;;;;;;;6.90;3.23;;;17.50;99.90;;;;;;7287210;19;20195;-83
2023/10/20 00:27:28;;;;;;;7.03;3.10;;;17.50;99.90;;;;;;7285183;19;20274;-83
2023/10/20 00:29:55;;;;;;;9.30;3.63;;;17.40;99.90;;;;;;7283977;19;20205;-83
2023/10/20 00:32:21;;;;;;;8.17;3.30;;;17.50;99.90;;;;;;7283737;19;20195;-83
2023/10/20 00:34:46;;;;;;;6.20;2.70;;;17.50;99.90;;;;;;7286865;19;20642;-83
2023/10/20 00:37:12;;;;;;;7.40;2.93;;;17.40;99.90;;;;;;7284119;19;20217;-83
2023/10/20 00:39:38;;;;;;;5.27;2.67;;;17.40;99.90;;;;;;7290549;19;20207;-83
2023/10/20 00:42:04;;;;;;;6.80;2.90;;;17.40;99.90;;;;;;7308480;19;20181;-83
2023/10/20 00:44:30;;;;;;;9.13;3.17;;;17.50;99.90;;;;;;7285344;19;20192;-83
2023/10/20 00:46:57;;;;;;;8.27;3.00;;;17.50;99.90;;;;;;7284681;19;20582;-83
2023/10/20 00:49:23;;;;;;;8.97;3.37;;;17.50;99.90;;;;;;7285761;19;20189;-84
2023/10/20 00:51:49;;;;;;;8.07;3.53;;;17.60;99.90;;;;;;7284261;19;20643;-83
2023/10/20 00:54:16;;;;;;;8.27;3.63;;;17.60;99.90;;;;;;7287340;19;20317;-83
2023/10/20 00:56:42;;;;;;;8.50;3.80;;;17.60;99.90;;;;;;7285084;19;20285;-83
2023/10/20 00:59:11;;;;;;;9.37;3.80;;;17.60;99.90;;;;;;7296838;19;20183;-83
2023/10/20 01:01:37;;;;;;;10.80;3.70;;;17.60;99.90;;;;;;7307369;19;20198;-83
2023/10/20 01:04:05;;;;;;;7.93;3.53;;;17.60;99.90;;;;;;7284691;19;20248;-83
2023/10/20 01:06:31;;;;;;;7.90;3.33;;;17.50;99.90;;;;;;7284004;19;20655;-83
2023/10/20 01:08:58;;;;;;;10.53;3.80;;;17.50;99.90;;;;;;7283508;19;20200;-82
2023/10/20 01:11:25;;;;;;;10.83;3.57;;;17.60;99.90;;;;;;7283392;19;20197;-83
2023/10/20 01:13:51;;;;;;;9.47;3.57;;;17.50;99.90;;;;;;7283346;19;20213;-82
2023/10/20 01:16:18;;;;;;;9.47;3.80;;;17.40;99.90;;;;;;7284203;19;20185;-83
2023/10/20 01:18:44;;;;;;;10.57;4.10;;;17.40;99.90;;;;;;7282294;19;20739;-83
2023/10/20 01:21:10;;;;;;;12.67;4.50;;;17.40;99.90;;;;;;7283125;19;20188;-83
2023/10/20 01:23:37;;;;;;;10.30;4.03;;;17.30;99.90;;;;;;7306752;19;20201;-83
2023/10/20 01:26:04;;;;;;;10.57;4.33;;;17.30;99.90;;;;;;7283930;19;20263;-83
2023/10/20 01:28:30;;;;;;;9.50;4.20;;;17.30;99.90;;;;;;7283813;19;20650;-83
2023/10/20 01:30:58;;;;;;;10.30;4.27;;;17.30;99.90;;;;;;7282682;19;20199;-84
2023/10/20 01:33:25;;;;;;;8.47;3.77;;;17.30;99.90;;;;;;7282132;19;20639;-84
2023/10/20 01:35:51;;;;;;;8.37;3.40;;;17.30;99.90;;;;;;7283909;19;20702;-82
2023/10/20 01:38:17;;;;;;;6.73;3.00;;;17.30;99.90;;;;;;7282758;19;20188;-83
2023/10/20 01:40:44;;;;;;;6.60;3.07;;;17.30;99.90;;;;;;7283010;19;20209;-82
2023/10/20 01:43:10;;;;;;;4.90;2.80;;;17.30;99.90;;;;;;7283470;19;20608;-82
2023/10/20 01:45:37;;;;;;;4.93;2.80;;;17.40;99.90;;;;;;7306151;19;20191;-83
2023/10/20 01:48:03;;;;;;;5.20;3.07;;;17.40;99.90;;;;;;7283527;19;20197;-82
2023/10/20 01:50:29;;;;;;;5.40;3.20;;;17.50;99.90;;;;;;7280628;19;20287;-83
2023/10/20 01:52:55;;;;;;;5.93;3.20;;;17.40;99.90;;;;;;7284780;19;20273;-83
2023/10/20 01:55:21;;;;;;;6.00;3.50;;;17.40;99.90;;;;;;7284576;19;20267;-83
2023/10/20 01:57:47;;;;;;;6.60;3.40;;;17.30;99.90;;;;;;7281833;19;20194;-83
2023/10/20 02:00:13;;;;;;;7.43;3.50;;;17.20;99.90;;;;;;7281867;19;20661;-83
2023/10/20 02:02:40;;;;;;;7.93;3.33;;;17.20;99.90;;;;;;7281847;19;20200;-83
2023/10/20 02:05:10;;;;;;;8.23;3.37;;;17.00;99.90;;;;;;7304022;19;20187;-82
2023/10/20 02:07:36;;;;;;;6.60;3.83;;;16.90;99.90;;;;;;7283492;19;20284;-82
2023/10/20 02:10:03;;;;;;;7.60;3.10;;;17.00;99.90;;;;;;7283333;19;20195;-82
2023/10/20 02:12:29;;;;;;;4.13;3.10;;;16.90;99.90;;;;;;7281164;19;20653;-83
2023/10/20 02:14:55;;;;;;;6.33;3.33;;;16.90;99.90;;;;;;7282974;19;20191;-83
2023/10/20 02:17:21;;;;;;;8.13;3.50;;;16.90;99.90;;;;;;7281701;19;20247;-83
2023/10/20 02:19:46;;;;;;;7.83;3.57;;;16.90;99.90;;;;;;7278166;19;20181;-83
2023/10/20 02:22:13;;;;;;;4.50;3.27;;;16.80;99.90;;;;;;7282628;19;20192;-83
2023/10/20 02:24:39;;;;;;;5.83;3.30;;;16.80;99.90;;;;;;7286883;19;20187;-82
2023/10/20 02:27:05;;;;;;;7.00;3.50;;;16.70;99.90;;;;;;7303544;19;21053;-83
2023/10/20 02:29:33;;;;;;;8.07;3.50;;;16.70;99.90;;;;;;7279724;19;20189;-83
2023/10/20 02:31:58;;;;;;;6.73;3.57;;;16.70;99.90;;;;;;7280380;19;20191;-83
2023/10/20 02:34:25;;;;;;;6.57;3.27;;;16.70;99.90;;;;;;7281634;19;20194;-83
2023/10/20 02:36:51;;;;;;;5.60;3.43;;;16.80;99.90;;;;;;7280745;19;20990;-83
2023/10/20 02:39:17;;;;;;;8.37;3.40;;;16.80;99.90;;;;;;7282136;19;20214;-83
2023/10/20 02:41:43;;;;;;;7.77;3.57;;;16.80;99.90;;;;;;7280933;19;20250;-82
2023/10/20 02:44:08;;;;;;;8.67;3.93;;;16.80;99.90;;;;;;7287725;19;20180;-82
2023/10/20 02:46:34;;;;;;;6.77;3.70;;;16.70;99.90;;;;;;7308701;19;20622;-83
2023/10/20 02:49:00;;;;;;;5.97;4.00;;;16.70;99.90;;;;;;7287665;19;20281;-83
2023/10/20 02:51:26;;;;;;;6.43;3.50;;;16.70;99.90;;;;;;7287408;19;20199;-83
2023/10/20 02:53:51;;;;;;;7.40;4.00;;;16.70;99.90;;;;;;7289608;19;20202;-83
2023/10/20 02:56:19;;;;;;;8.23;3.80;;;16.70;99.90;;;;;;7288068;19;20190;-83
2023/10/20 02:58:46;;;;;;;6.63;3.70;;;16.70;99.90;;;;;;7285669;19;20183;-83
2023/10/20 03:01:13;;;;;;;6.33;3.83;;;16.70;99.90;;;;;;7288655;19;20610;-84
2023/10/20 03:03:41;;;;;;;7.57;4.17;;;16.70;99.90;;;;;;7289812;19;20191;-84
2023/10/20 03:06:07;;;;;;;8.23;4.30;;;16.80;99.90;;;;;;7309432;19;20636;-84
2023/10/20 03:08:34;;;;;;;7.20;3.87;;;16.60;99.90;;;;;;7288046;19;20258;-83
2023/10/20 03:11:00;;;;;;;9.03;4.40;;;16.60;99.90;;;;;;7287068;19;20196;-84
2023/10/20 03:13:27;;;;;;;8.60;4.07;;;16.50;99.90;;;;;;7289078;19;20194;-82
2023/10/20 03:15:54;;;;;;;8.03;4.27;;;16.60;99.90;;;;;;7290442;19;20191;-82
2023/10/20 03:18:21;;;;;;;8.60;4.37;;;16.60;99.90;;;;;;7289530;19;20191;-82
2023/10/20 03:20:50;;;;;;;9.17;4.60;;;16.70;99.90;;;;;;7289843;19;20202;-84
2023/10/20 03:23:21;;;;;;;9.03;5.10;;;16.70;99.90;;;;;;7290014;19;20198;-84
2023/10/20 03:25:48;;;;;;;9.07;4.57;;;16.70;99.90;;;;;;7287430;19;20202;-84
2023/10/20 03:28:13;;;;;;;10.43;4.80;;;16.50;99.90;;;;;;7286134;19;20213;-83
2023/10/20 03:30:40;;;;;;;8.40;4.60;;;16.50;99.90;;;;;;7287737;19;20193;-82
2023/10/20 03:33:07;;;;;;;6.73;4.40;;;16.50;99.90;;;;;;7310050;19;20179;-83
2023/10/20 03:35:33;;;;;;;8.63;4.57;;;16.50;99.90;;;;;;7289317;19;20227;-83
2023/10/20 03:38:00;;;;;;;7.60;4.43;;;16.60;99.90;;;;;;7287839;19;21026;-83
2023/10/20 03:40:30;;;;;;;9.63;4.90;;;16.50;99.90;;;;;;7287412;19;20220;-84
2023/10/20 03:42:59;;;;;;;11.90;5.33;;;16.50;99.90;;;;;;7288103;19;20197;-84
2023/10/20 03:45:25;;;;;;;8.17;5.07;;;16.60;99.90;;;;;;7287701;19;20181;-83
2023/10/20 03:47:51;;;;;;;8.67;5.30;;;16.60;99.90;;;;;;7290053;19;20662;-84
2023/10/20 03:50:17;;;;;;;9.87;6.03;;;16.60;99.90;;;;;;7286957;19;20196;-83
2023/10/20 03:52:46;;;;;;;8.63;5.67;;;16.50;99.90;;;;;;7287115;19;20994;-83
2023/10/20 03:55:16;;;;;;;10.53;5.90;;;16.50;99.90;;;;;;7287958;19;20652;-83
2023/10/20 03:57:43;;;;;;;9.47;5.93;;;16.50;99.90;;;;;;7287436;19;20203;-83
2023/10/20 04:00:29;;;;;;;12.47;6.27;;;16.40;99.90;;;;;;7295235;19;20247;-82
2023/10/20 04:02:56;;;;;;;11.53;6.13;;;16.50;99.90;;;;;;7285893;19;20209;-83
2023/10/20 04:05:23;;;;;;;10.07;6.63;;;16.50;99.90;;;;;;7286259;19;20949;-85
2023/10/20 04:07:50;;;;;;;10.27;6.47;;;16.50;99.90;;;;;;7287755;19;20195;-84
2023/10/20 04:10:19;;;;;;;10.93;6.67;;;16.50;99.90;;;;;;7288996;19;20193;-83
2023/10/20 04:12:46;;;;;;;11.83;7.37;;;16.40;99.90;;;;;;7288175;19;20271;-83
2023/10/20 04:15:17;;;;;;;10.30;6.73;;;16.40;99.90;;;;;;7286609;19;20743;-83
2023/10/20 04:17:54;;;;;;;13.50;7.13;;;16.40;99.90;;;;;;7285887;19;20207;-83
2023/10/20 04:20:20;;;;;;;12.07;8.03;;;16.40;99.90;;;;;;7284367;19;20190;-83
2023/10/20 04:22:50;;;;;;;12.57;8.20;;;16.50;99.90;;;;;;7285783;19;20226;-84
2023/10/20 04:25:21;;;;;;;11.00;7.90;;;16.50;99.90;;;;;;7286065;19;20181;-85
2023/10/20 04:52:55;;;;;;;15.33;10.87;;;16.60;99.90;;;;;;7285646;19;20194;-85
2023/10/20 04:54:58;;;;;;;14.60;10.60;;;16.60;99.90;;;;;;7184967;19;2004412;-84
2023/10/20 05:02:39;;;;;;;19.90;11.43;;;16.60;99.90;;;;;;7287185;19;20214;-85
2023/10/20 05:05:26;;;;;;;17.20;11.50;;;16.60;99.90;;;;;;7286374;19;20290;-87
2023/10/20 05:10:38;;;;;;;16.47;11.03;;;16.60;99.90;;;;;;7284450;19;20202;-85
2023/10/20 05:13:04;;;;;;;15.53;10.57;;;16.60;99.90;;;;;;7299097;19;20207;-88
2023/10/20 05:15:38;;;;;;;18.40;11.00;;;16.60;99.90;;;;;;7286632;19;20190;-87
2023/10/20 05:18:05;;;;;;;17.07;11.53;;;16.50;99.90;;;;;;7287205;19;20186;-88
2023/10/20 05:20:36;;;;;;;17.03;12.50;;;16.50;99.90;;;;;;7287339;19;20196;-88
2023/10/20 05:23:02;;;;;;;19.70;11.30;;;16.50;99.90;;;;;;7288491;19;20214;-93
2023/10/20 05:25:31;;;;;;;17.93;11.57;;;16.50;99.90;;;;;;7289864;19;20206;-88
2023/10/20 05:27:57;;;;;;;16.57;11.50;;;16.50;99.90;;;;;;7286274;19;20188;-91
2023/10/20 05:30:22;;;;;;;16.43;11.70;;;16.60;99.90;;;;;;7288324;19;20256;-86
2023/10/20 05:32:48;;;;;;;17.87;12.00;;;16.60;99.90;;;;;;7285526;19;20192;-88
2023/10/20 05:35:15;;;;;;;14.97;11.03;;;16.60;99.90;;;;;;7289610;19;20215;-88
2023/10/20 05:37:42;;;;;;;19.97;11.27;;;16.50;99.90;;;;;;7291395;19;20199;-89
2023/10/20 05:40:08;;;;;;;15.57;10.60;;;16.50;99.90;;;;;;7301169;19;20206;-89
2023/10/20 05:42:34;;;;;;;18.23;11.03;;;16.60;99.90;;;;;;7300741;19;20191;-87
2023/10/20 05:45:09;;;;;;;14.90;10.67;;;16.60;99.90;;;;;;7285840;19;20198;-88
2023/10/20 05:47:38;;;;;;;16.67;10.17;;;16.60;99.90;;;;;;7285170;19;20190;-89
2023/10/20 05:50:06;;;;;;;15.53;10.47;;;16.60;99.90;;;;;;7286720;19;20211;-87
2023/10/20 05:52:35;;;;;;;15.50;10.53;;;16.60;99.90;;;;;;7287371;19;20278;-88
2023/10/20 05:55:03;;;;;;;15.03;10.17;;;16.60;99.90;;;;;;7288439;19;20218;-87
2023/10/20 05:57:29;;;;;;;15.33;10.77;;;16.60;99.90;;;;;;7285444;19;20228;-86
2023/10/20 05:59:58;;;;;;;15.07;10.33;;;16.60;99.90;;;;;;7284730;19;20194;-85
2023/10/20 06:02:25;;;;;;;15.50;10.47;;;16.60;99.90;;;;;;7285776;19;20199;-86
2023/10/20 06:04:51;;;;;;;16.57;10.80;;;16.60;99.90;;;;;;7285138;19;20192;-86
2023/10/20 06:07:16;;;;;;;17.67;11.13;;;16.60;99.90;;;;;;7286714;19;20183;-87
2023/10/20 06:09:42;;;;;;;15.10;10.77;;;16.60;99.90;;;;;;7286047;19;20198;-87
2023/10/20 06:12:10;;;;;;;14.23;10.87;;;16.50;99.90;;;;;;7302174;19;20672;-86
2023/10/20 06:14:37;;;;;;;16.57;11.13;;;16.60;99.90;;;;;;7306916;19;20206;-87
2023/10/20 06:17:03;;;;;;;15.70;10.80;;;16.50;99.90;;;;;;7284732;19;20200;-86
2023/10/20 06:19:29;;;;;;;15.97;11.13;;;16.50;99.90;;;;;;7286893;19;20560;-86
2023/10/20 06:21:55;;;;;;;16.40;11.37;;;16.50;99.90;;;;;;7291236;19;20186;-84
2023/10/20 06:24:21;;;;;;;15.17;11.13;;;16.50;99.90;;;;;;7290677;19;20212;-85
2023/10/20 06:26:47;;;;;;;15.93;11.10;;;16.50;99.90;;;;;;7297335;19;20201;-85
2023/10/20 06:29:26;;;;;;;16.53;11.60;;;16.40;99.90;;;;;;7293559;19;20764;-86
2023/10/20 06:34:41;;;;;;;17.40;12.60;;;16.50;99.90;;;;;;7291339;19;20538;-87
2023/10/20 06:37:13;;;;;;;19.30;12.60;;;16.40;99.90;;;;;;7315999;19;20212;-86
2023/10/20 06:39:40;;;;;;;17.50;12.77;;;16.40;99.90;;;;;;7272193;19;20185;-86
2023/10/20 06:42:06;;;;;;;15.27;11.23;;;16.50;99.90;;;;;;7312710;19;20714;-85
2023/10/20 06:44:36;;;;;;;14.93;11.10;;;16.50;99.90;;;;;;7289818;19;20215;-85
2023/10/20 06:47:02;;;;;;;15.93;11.63;;;16.60;99.90;;;;;;7290231;19;20191;-85
2023/10/20 06:49:28;;;;;;;15.80;11.87;;;16.60;99.90;;;;;;7292450;19;20206;-86
2023/10/20 06:51:54;;;;;;;15.67;12.20;;;16.70;99.90;;;;;;7291191;19;20189;-86
2023/10/20 06:54:23;;;;;;;19.13;12.40;;;16.70;99.90;;;;;;7291512;19;20186;-86
2023/10/20 06:56:48;;;;;;;17.43;11.80;;;16.70;99.90;;;;;;7290607;19;20258;-86
2023/10/20 06:59:14;;;;;;;16.87;12.07;;;16.70;99.90;;;;;;7290186;19;20207;-86
2023/10/20 07:01:43;;;;;;;15.57;12.23;;;16.70;99.90;;;;;;7292003;19;20302;-86
2023/10/20 07:04:09;;;;;;;17.60;12.20;;;16.60;99.90;;;;;;7301478;19;20183;-86
2023/10/20 07:06:36;;;;;;;18.53;11.90;;;16.60;99.90;;;;;;7311138;19;20201;-86
2023/10/20 07:09:11;;;;;;;18.47;11.83;;;16.70;99.90;;;;;;7290043;19;20187;-86
2023/10/20 07:11:38;;;;;;;18.53;13.17;;;16.60;99.90;;;;;;7289965;19;20211;-85
2023/10/20 07:14:07;;;;;;;18.50;11.87;;;16.60;99.90;;;;;;7290239;19;20195;-86
2023/10/20 07:16:33;;;;;;;19.80;12.53;;;16.60;99.90;;;;;;7295548;19;20179;-86
2023/10/20 07:19:00;;;;;;;17.53;11.63;;;16.60;99.90;;;;;;7295667;19;20176;-86
2023/10/20 07:21:26;;;;;;;19.60;12.33;;;16.60;99.90;;;;;;7292980;19;20195;-86
2023/10/20 07:23:52;;;;;;;16.67;12.17;;;16.70;99.90;;;;;;7296154;19;20190;-85
2023/10/20 07:26:18;;;;;;;16.77;11.50;;;16.80;99.90;;;;;;7296916;19;20185;-85
2023/10/20 07:28:45;;;;;;;17.57;11.60;;;16.80;99.90;;;;;;7295804;19;20187;-85
2023/10/20 07:31:15;;;;;;;18.83;12.00;;;16.80;99.90;;;;;;7294060;19;20216;-85
2023/10/20 07:33:41;;;;;;;16.53;11.10;;;16.80;99.90;;;;;;7294588;19;20194;-85
2023/10/20 07:36:07;;;;;;;20.20;13.23;;;16.80;99.90;;;;;;7316433;19;20183;-85
2023/10/20 07:38:33;;;;;;;18.23;11.37;;;16.90;99.90;;;;;;7296768;19;20215;-84
2023/10/20 07:41:06;;;;;;;14.10;10.23;;;16.90;99.90;;;;;;7297294;19;20178;-85
2023/10/20 07:43:35;;;;;;;16.57;10.40;;;16.80;99.90;;;;;;7297723;19;20192;-84
2023/10/20 07:46:02;;;;;;;14.47;9.80;;;16.70;99.90;;;;;;7296158;19;20205;-85
2023/10/20 07:48:28;;;;;;;13.37;9.30;;;16.90;99.90;;;;;;7296382;19;21203;-85
2023/10/20 07:50:56;;;;;;;16.00;10.27;;;16.90;99.90;;;;;;7296365;19;20209;-85
2023/10/20 07:53:29;;;;;;;15.47;9.63;;;16.80;99.90;;;;;;7297552;19;21053;-85
2023/10/20 07:55:55;;;;;;;13.27;8.43;;;16.80;99.90;;;;;;7294516;19;20601;-85
2023/10/20 07:58:21;;;;;;;12.63;8.77;;;16.80;99.90;;;;;;7294688;19;20653;-85
2023/10/20 08:00:47;;;;;;;12.97;9.50;;;16.80;99.90;;;;;;7289130;19;20679;-85
2023/10/20 08:03:13;;;;;;;14.33;9.00;;;16.80;99.90;;;;;;7288811;19;20187;-85
2023/10/20 08:05:39;;;;;;;14.60;9.10;;;16.90;99.90;;;;;;7302596;19;20189;-86
2023/10/20 08:08:06;;;;;;;13.10;9.70;;;16.90;99.90;;;;;;7313451;19;20197;-85
2023/10/20 08:10:32;;;;;;;15.47;8.80;;;16.90;99.90;;;;;;7288778;19;20219;-85
2023/10/20 08:12:59;;;;;;;14.43;8.20;;;17.00;99.90;;;;;;7289534;19;20204;-84
2023/10/20 08:15:28;;;;;;;12.83;7.60;;;16.90;99.90;;;;;;7291641;19;20223;-85
2023/10/20 08:17:57;;;;;;;11.07;7.47;;;16.90;99.90;;;;;;7287560;19;20195;-86
2023/10/20 08:20:23;;;;;;;14.23;8.60;;;16.90;99.90;;;;;;7287752;19;20191;-85
2023/10/20 08:22:49;;;;;;;11.63;7.43;;;17.00;99.90;;;;;;7289673;19;20188;-85
2023/10/20 08:25:15;;;;;;;16.93;13.80;;;16.90;99.90;;;;;;7286194;19;20241;-86
2023/10/20 08:27:41;;;;;;;19.30;13.80;;;16.90;99.90;;;;;;7285794;19;20180;-86
2023/10/20 08:30:08;;;;;;;12.13;7.93;;;16.80;99.90;;;;;;7307022;19;20244;-84
2023/10/20 08:32:34;;;;;;;13.93;8.07;;;16.90;99.90;;;;;;7286813;19;20187;-86
2023/10/20 08:35:00;;;;;;;12.00;7.47;;;16.90;99.90;;;;;;7288354;19;20234;-85
2023/10/20 08:37:26;;;;;;;11.13;7.73;;;16.90;99.90;;;;;;7286894;19;20187;-85
2023/10/20 08:39:54;;;;;;;13.87;8.00;;;17.00;99.90;;;;;;7287274;19;20195;-86
2023/10/20 08:42:21;;;;;;;13.17;7.87;;;17.00;99.90;;;;;;7286574;19;20211;-86
2023/10/20 08:44:48;;;;;;;10.27;7.17;;;17.00;99.90;;;;;;7286779;19;20178;-85
2023/10/20 08:47:15;;;;;;;11.63;7.73;;;17.00;99.90;;;;;;7286348;19;20633;-86
2023/10/20 08:49:42;;;;;;;11.50;7.37;;;17.00;99.90;;;;;;7287606;19;20580;-85
2023/10/20 08:52:11;;;;;;;13.40;7.57;;;17.00;99.90;;;;;;7306568;19;20702;-85
2023/10/20 08:54:38;;;;;;;12.93;7.53;;;17.00;99.90;;;;;;7309800;19;20315;-86
2023/10/20 08:57:05;;;;;;;9.83;6.47;;;17.10;99.90;;;;;;7286960;19;20221;-86
2023/10/20 08:59:31;;;;;;;13.07;7.23;;;17.20;99.90;;;;;;7287027;19;20191;-85
2023/10/20 09:01:58;;;;;;;10.93;7.37;;;17.20;99.90;;;;;;7285297;19;20202;-85
2023/10/20 09:04:25;;;;;;;10.53;6.03;;;17.30;99.90;;;;;;7286570;19;20219;-85
2023/10/20 09:06:52;;;;;;;7.70;5.33;;;17.20;99.90;;;;;;7286676;19;20211;-84
2023/10/20 09:09:19;;;;;;;9.90;5.50;;;17.30;99.90;;;;;;7286775;19;20220;-86
2023/10/20 09:11:46;;;;;;;9.47;5.60;;;17.20;99.90;;;;;;7285249;19;20208;-85
2023/10/20 09:14:14;;;;;;;9.93;6.40;;;17.30;99.90;;;;;;7286203;19;20195;-85
2023/10/20 09:16:40;;;;;;;8.50;6.27;;;17.40;99.90;;;;;;7295914;19;20184;-85
2023/10/20 09:19:11;;;;;;;13.53;9.73;;;17.50;99.90;;;;;;7307290;19;20188;-85
2023/10/20 09:21:41;;;;;;;8.27;6.00;;;17.60;99.90;;;;;;7285669;19;20211;-84
2023/10/20 09:24:09;;;;;;;7.47;4.00;;;17.60;99.90;;;;;;7285811;19;20192;-85
2023/10/20 09:26:37;;;;;;;7.10;3.90;;;17.60;99.90;;;;;;7285378;19;20186;-85
2023/10/20 09:29:06;;;;;;;6.90;4.40;;;17.70;99.90;;;;;;7285758;19;20188;-86
2023/10/20 09:31:34;;;;;;;6.70;2.80;;;17.70;99.90;;;;;;7290704;19;20187;-85
2023/10/20 09:34:00;;;;;;;8.03;2.83;;;17.70;99.90;;;;;;7294824;19;20186;-85
2023/10/20 09:36:30;;;;;;;9.17;3.20;;;17.80;99.90;;;;;;7295421;19;20254;-85
2023/10/20 09:38:57;;;;;;;6.10;3.03;;;17.70;99.90;;;;;;7296045;19;20187;-84
2023/10/20 09:41:27;;;;;;;8.87;2.80;;;17.80;99.90;;;;;;7293538;19;20230;-85
2023/10/20 09:44:03;;;;;;;4.93;2.50;;;17.80;99.90;;;;;;7292529;19;20197;-84
2023/10/20 09:46:52;;;;;;;5.30;2.40;;;17.80;99.90;;;;;;7289948;19;20216;-85
2023/10/20 09:49:20;;;;;;;5.03;1.97;;;17.70;99.90;;;;;;7189580;19;2004957;-85
2023/10/20 09:51:47;;;;;;;4.90;2.43;;;17.60;99.90;;;;;;7289233;19;20199;-86
2023/10/20 09:54:22;;;;;;;3.00;1.80;;;17.50;99.90;;;;;;7292404;19;20311;-85
2023/10/20 09:56:49;;;;;;;3.80;1.90;;;17.40;99.90;;;;;;7292972;19;20190;-84
2023/10/20 09:59:28;;;;;;;3.37;1.83;;;17.30;99.90;;;;;;7291884;19;20198;-85
2023/10/20 10:01:56;;;;;;;3.50;1.70;;;17.30;99.90;;;;;;7290198;19;20272;-84
2023/10/20 10:04:36;;;;;;;4.73;1.43;;;17.20;99.90;;;;;;7292767;19;20196;-84
2023/10/20 10:07:07;;;;;;;19.10;8.70;;;17.30;99.90;;;;;;7291917;19;20208;-85
2023/10/20 10:09:38;;;;;;;6.87;2.43;;;17.30;99.90;;;;;;7284486;19;20196;-86
2023/10/20 10:12:14;;;;;;;4.77;1.57;;;17.10;99.90;;;;;;7292971;19;20192;-86
2023/10/20 10:14:40;;;;;;;4.30;1.30;;;17.10;99.90;;;;;;7274265;19;20189;-85
2023/10/20 10:17:10;;;;;;;6.33;1.50;;;17.20;99.90;;;;;;7308102;19;20190;-85
2023/10/20 10:19:48;;;;;;;5.47;1.70;;;17.20;99.90;;;;;;7293302;19;20198;-85
2023/10/20 10:22:17;;;;;;;3.37;1.93;;;17.30;99.90;;;;;;7193307;19;2004688;-86
2023/10/20 10:24:54;;;;;;;3.37;1.50;;;17.30;99.90;;;;;;7288546;19;20197;-85
2023/10/20 10:27:24;;;;;;;9.03;4.47;;;17.40;99.90;;;;;;7286199;19;20267;-85
2023/10/20 10:29:53;;;;;;;6.23;3.27;;;17.50;99.90;;;;;;7285281;19;20191;-85
2023/10/20 10:32:26;;;;;;;7.60;3.80;;;17.60;99.90;;;;;;7289131;19;20215;-84
2023/10/20 10:34:53;;;;;;;5.10;2.00;;;17.60;99.90;;;;;;7286403;19;20191;-85
2023/10/20 10:37:37;;;;;;;4.23;2.40;;;17.60;99.90;;;;;;7289721;19;20349;-86
2023/10/20 10:40:13;;;;;;;2.97;1.80;;;17.70;99.90;;;;;;7288772;19;20242;-84
2023/10/20 10:42:46;;;;;;;5.13;1.77;;;17.60;99.90;;;;;;7274149;19;20192;-85
2023/10/20 10:45:27;;;;;;;2.00;1.30;;;17.60;99.90;;;;;;7285644;19;20200;-84
2023/10/20 10:48:10;;;;;;;2.10;1.53;;;17.60;99.90;;;;;;7283741;19;20551;-85
2023/10/20 10:50:38;;;;;;;5.83;2.10;;;17.50;99.90;;;;;;7284292;19;20200;-85
2023/10/20 10:53:04;;;;;;;6.20;2.10;;;17.50;99.90;;;;;;7283024;19;20189;-85
2023/10/20 10:55:31;;;;;;;4.90;2.77;;;17.40;99.90;;;;;;7284456;19;20616;-85
2023/10/20 10:58:15;;;;;;;6.20;2.77;;;17.40;99.90;;;;;;7282717;19;20211;-85
2023/10/20 11:00:43;;;;;;;4.33;2.60;;;17.40;99.90;;;;;;7262983;19;20192;-85
2023/10/20 11:03:09;;;;;;;5.07;3.20;;;17.30;99.90;;;;;;7297899;19;20182;-84
2023/10/20 11:05:36;;;;;;;7.17;2.97;;;17.30;99.90;;;;;;7304537;19;20191;-84
2023/10/20 11:08:10;;;;;;;5.03;3.40;;;17.30;99.90;;;;;;7291324;19;20191;-84
2023/10/20 11:10:41;;;;;;;7.47;3.73;;;17.20;99.90;;;;;;7292517;19;20197;-84
2023/10/20 11:13:09;;;;;;;7.57;3.90;;;17.20;99.90;;;;;;7293542;19;20209;-85
2023/10/20 11:15:35;;;;;;;8.27;4.83;;;17.20;99.90;;;;;;7293395;19;20588;-84
2023/10/20 11:18:02;;;;;;;7.50;4.33;;;17.20;99.90;;;;;;7288741;19;20198;-85
2023/10/20 11:20:31;;;;;;;6.80;3.73;;;17.30;99.90;;;;;;7291200;19;20194;-85
2023/10/20 11:22:57;;;;;;;6.73;3.50;;;17.30;99.90;;;;;;7288933;19;20193;-85
2023/10/20 11:25:24;;;;;;;9.40;3.33;;;17.40;99.90;;;;;;7290752;19;20527;-85
2023/10/20 11:27:55;;;;;;;3.73;2.80;;;17.40;99.90;;;;;;7288186;19;20191;-85
2023/10/20 11:30:32;;;;;;;2.87;1.97;;;17.40;99.90;;;;;;7287634;19;20191;-85
2023/10/20 11:32:58;;;;;;;5.30;2.00;;;17.30;99.90;;;;;;7287846;19;20213;-84
2023/10/20 11:35:25;;;;;;;6.00;2.20;;;17.40;99.90;;;;;;7291791;19;20251;-85
2023/10/20 11:37:58;;;;;;;4.13;2.10;;;17.40;99.90;;;;;;7290585;19;20642;-85
2023/10/20 11:40:26;;;;;;;3.80;1.60;;;17.40;99.90;;;;;;7288660;19;20219;-85
2023/10/20 11:42:52;;;;;;;3.20;1.70;;;17.50;99.90;;;;;;7288259;19;20196;-85
2023/10/20 11:45:18;;;;;;;4.87;1.50;;;17.50;99.90;;;;;;7288546;19;20212;-86
2023/10/20 11:47:44;;;;;;;3.07;1.40;;;17.50;99.90;;;;;;7287206;19;20185;-84
2023/10/20 11:50:11;;;;;;;3.47;1.70;;;17.40;99.90;;;;;;7290367;19;20209;-84
2023/10/20 11:52:40;;;;;;;3.77;1.90;;;17.40;99.90;;;;;;7310251;19;20190;-85
2023/10/20 11:55:08;;;;;;;2.87;1.70;;;17.50;99.90;;;;;;7289970;19;20195;-85
2023/10/20 11:57:35;;;;;;;3.80;1.90;;;17.60;99.90;;;;;;7289761;19;20214;-84
2023/10/20 12:00:07;;;;;;;6.30;2.00;;;17.60;99.90;;;;;;7286812;19;20694;-84
2023/10/20 12:02:38;;;;;;;5.87;2.57;;;17.60;99.90;;;;;;7290046;19;20196;-85
2023/10/20 12:05:09;;;;;;;5.03;2.40;;;17.60;99.90;;;;;;7289366;19;20221;-84
2023/10/20 12:07:35;;;;;;;5.30;2.83;;;17.50;99.90;;;;;;7289912;19;20313;-85
2023/10/20 12:10:04;;;;;;;7.40;2.60;;;17.50;99.90;;;;;;7285999;19;20230;-85
2023/10/20 12:12:31;;;;;;;5.70;2.73;;;17.30;99.90;;;;;;7287907;19;20199;-84
2023/10/20 12:14:57;;;;;;;5.77;2.57;;;17.30;99.90;;;;;;7288267;19;20194;-84
2023/10/20 12:17:24;;;;;;;4.47;2.57;;;17.20;99.90;;;;;;7287892;19;20676;-85
2023/10/20 12:19:50;;;;;;;5.40;2.80;;;17.10;99.90;;;;;;7286363;19;20191;-85
2023/10/20 12:22:17;;;;;;;8.13;3.20;;;17.10;99.90;;;;;;7288553;19;20195;-85
2023/10/20 12:24:43;;;;;;;5.33;3.10;;;17.10;99.90;;;;;;7287340;19;20195;-85
2023/10/20 12:27:09;;;;;;;6.67;3.27;;;17.10;99.90;;;;;;7307017;19;20205;-85
2023/10/20 12:29:36;;;;;;;5.10;3.23;;;17.00;99.90;;;;;;7303587;19;20296;-85
2023/10/20 12:32:03;;;;;;;7.57;3.60;;;17.00;99.90;;;;;;7286546;19;20244;-84
2023/10/20 12:34:31;;;;;;;6.13;3.43;;;17.00;99.90;;;;;;7286781;19;21213;-85
2023/10/20 12:36:59;;;;;;;7.57;3.47;;;17.10;99.90;;;;;;7287527;19;20200;-85
2023/10/20 12:39:25;;;;;;;6.80;3.07;;;17.20;99.90;;;;;;7287286;19;20192;-83
2023/10/20 12:41:51;;;;;;;8.47;3.10;;;17.30;99.90;;;;;;7284083;19;20200;-85
2023/10/20 12:44:18;;;;;;;6.13;3.33;;;17.20;99.90;;;;;;7286036;19;20198;-85
2023/10/20 12:46:44;;;;;;;4.90;2.83;;;17.30;99.90;;;;;;7285966;19;20557;-84
2023/10/20 12:49:10;;;;;;;6.57;3.00;;;17.20;99.90;;;;;;7295585;19;20256;-83
2023/10/20 12:51:36;;;;;;;5.60;3.30;;;17.20;99.90;;;;;;7310398;19;20192;-83
2023/10/20 12:54:03;;;;;;;5.20;3.20;;;17.20;99.90;;;;;;7287697;19;20686;-83
2023/10/20 12:56:30;;;;;;;5.53;3.13;;;17.20;99.90;;;;;;7286402;19;20201;-84
2023/10/20 12:58:56;;;;;;;5.80;3.50;;;17.20;99.90;;;;;;7286212;19;20192;-84
2023/10/20 13:01:22;;;;;;;6.40;3.40;;;17.30;99.90;;;;;;7284681;19;20218;-85
2023/10/20 13:03:48;;;;;;;8.27;3.53;;;17.30;99.90;;;;;;7284997;19;20193;-85
2023/10/20 13:06:15;;;;;;;9.70;3.67;;;17.40;99.90;;;;;;7286611;19;20202;-85
2023/10/20 13:08:43;;;;;;;6.60;3.90;;;17.40;99.90;;;;;;7286213;19;20191;-85
2023/10/20 13:11:10;;;;;;;8.57;3.90;;;17.40;99.90;;;;;;7307762;19;20198;-85
2023/10/20 13:13:36;;;;;;;7.57;3.63;;;17.30;99.90;;;;;;7285568;19;20214;-85
2023/10/20 13:16:02;;;;;;;6.77;3.50;;;17.30;99.90;;;;;;7285593;19;20264;-85
2023/10/20 13:18:29;;;;;;;4.63;2.70;;;17.30;99.90;;;;;;7286515;19;25965;-85